createdAt,value
2022-11-19T00:07:25.256Z,34.58
2022-11-19T00:17:28.178Z,35.90
2022-11-19T00:27:33.247Z,37.00
2022-11-19T00:47:40.499Z,35.13
2022-11-19T00:57:43.449Z,26.30
2022-11-19T01:07:47.880Z,34.13
2022-11-19T01:17:50.831Z,34.50
2022-11-19T01:27:55.999Z,36.75
2022-11-19T01:38:01.014Z,34.38
2022-11-19T01:58:11.784Z,36.20
2022-11-19T02:08:39.174Z,32.10
2022-11-19T02:18:49.385Z,32.20
2022-11-19T02:29:00.577Z,34.25
2022-11-19T02:39:07.688Z,26.15
2022-11-19T02:49:12.885Z,24.45
2022-11-19T02:59:37.490Z,23.08
2022-11-19T03:09:44.875Z,24.77
2022-11-19T03:19:57.572Z,23.83
2022-11-19T03:30:03.386Z,22.23
2022-11-19T03:40:10.412Z,24.15
2022-11-19T03:50:20.474Z,25.17
2022-11-19T04:00:25.054Z,25.50
2022-11-19T04:10:27.976Z,29.48
2022-11-19T04:20:32.661Z,28.00
2022-11-19T04:30:35.612Z,28.35
2022-11-19T04:40:40.237Z,28.92
2022-11-19T04:50:43.610Z,30.42
2022-11-19T05:00:49.143Z,32.10
2022-11-19T05:10:52.304Z,31.42
2022-11-19T05:20:56.636Z,31.73
2022-11-19T05:30:59.881Z,33.60
2022-11-19T05:41:04.181Z,33.83
2022-11-19T05:51:07.271Z,32.43
2022-11-19T06:01:11.541Z,32.47
2022-11-19T06:11:47.645Z,32.47
2022-11-19T06:21:52.848Z,33.65
2022-11-19T06:31:55.817Z,35.28
2022-11-19T06:42:20.186Z,37.10
2022-11-19T06:52:23.264Z,39.97
2022-11-19T07:02:27.610Z,39.28
2022-11-19T07:12:31.071Z,31.43
2022-11-19T07:22:35.533Z,38.80
2022-11-19T07:32:38.457Z,39.77
2022-11-19T07:42:53.333Z,37.58
2022-11-19T07:52:59.279Z,37.88
2022-11-19T08:03:05.619Z,37.22
2022-11-19T08:13:08.540Z,37.50
2022-11-19T08:23:13.317Z,38.38
2022-11-19T08:33:16.325Z,36.95
2022-11-19T08:43:20.936Z,37.85
2022-11-19T08:53:23.847Z,38.05
2022-11-19T09:03:28.224Z,34.97
2022-11-19T09:13:31.290Z,33.67
2022-11-19T09:23:39.318Z,34.17
2022-11-19T09:33:45.847Z,37.90
2022-11-19T09:43:57.856Z,31.85
2022-11-19T09:54:05.919Z,34.03
2022-11-19T10:04:13.474Z,35.58
2022-11-19T10:14:36.033Z,34.33
2022-11-19T10:24:44.594Z,33.47
2022-11-19T10:34:50.016Z,32.25
2022-11-19T10:45:00.487Z,30.63
2022-11-19T10:55:17.111Z,31.48
2022-11-19T11:05:21.525Z,31.00
2022-11-19T11:15:27.221Z,29.83
2022-11-19T11:25:32.038Z,28.92
2022-11-19T11:35:38.827Z,30.42
2022-11-19T11:45:43.232Z,27.15
2022-11-19T11:55:46.140Z,24.13
2022-11-19T12:06:01.415Z,23.38
2022-11-19T12:16:10.885Z,22.88
2022-11-19T12:26:23.214Z,21.90
2022-11-19T12:36:32.868Z,20.25
2022-11-19T12:46:51.487Z,20.88
2022-11-19T12:57:07.810Z,20.85
2022-11-19T13:07:16.199Z,22.15
2022-11-19T13:17:23.500Z,20.50
2022-11-19T13:27:30.023Z,20.33
2022-11-19T13:37:44.725Z,21.30
2022-11-19T13:47:58.280Z,30.33
2022-11-19T13:58:18.132Z,18.85
2022-11-19T14:08:42.068Z,18.63
2022-11-19T14:19:07.069Z,19.48
2022-11-19T14:29:50.427Z,19.58
2022-11-19T14:40:00.815Z,20.02
2022-11-19T14:50:18.560Z,18.10
2022-11-19T15:00:31.323Z,17.13
2022-11-19T15:10:48.623Z,17.63
2022-11-19T15:21:16.933Z,17.48
2022-11-19T15:31:46.741Z,15.88
2022-11-19T15:42:04.444Z,16.70
2022-11-19T15:52:18.540Z,19.05
2022-11-19T16:02:29.549Z,16.65
2022-11-19T16:12:51.785Z,16.08
2022-11-19T16:22:59.386Z,17.23
2022-11-19T16:33:05.098Z,16.45
2022-11-19T16:43:08.124Z,17.17
2022-11-19T16:53:12.436Z,18.00
2022-11-19T17:03:35.771Z,13.63
2022-11-19T17:13:40.089Z,18.75
2022-11-19T17:23:48.994Z,13.27
2022-11-19T17:33:55.611Z,16.35
2022-11-19T17:44:16.108Z,16.80
2022-11-19T17:54:20.724Z,16.73
2022-11-19T18:04:23.858Z,16.45
2022-11-19T18:14:28.155Z,15.93
2022-11-19T18:24:31.057Z,11.03
2022-11-19T18:34:35.506Z,13.98
2022-11-19T18:44:38.676Z,14.80
2022-11-19T18:54:43.149Z,15.05
2022-11-19T19:04:50.863Z,16.03
2022-11-19T19:14:56.906Z,18.33
2022-11-19T19:24:59.804Z,15.80
2022-11-19T19:35:04.221Z,13.93
2022-11-19T19:45:08.168Z,13.23
2022-11-19T19:55:12.953Z,12.60
2022-11-19T20:05:16.192Z,13.33
2022-11-19T20:15:20.677Z,12.40
2022-11-19T20:25:23.713Z,13.88
2022-11-19T20:35:29.021Z,15.60
2022-11-19T20:45:31.912Z,13.77
2022-11-19T20:55:48.422Z,13.57
2022-11-19T21:06:00.114Z,15.40
2022-11-19T21:16:08.509Z,13.87
2022-11-19T21:26:16.411Z,12.95
2022-11-19T21:36:20.703Z,14.43
2022-11-19T21:46:23.663Z,14.30
2022-11-19T21:56:33.649Z,14.55
2022-11-19T22:06:40.021Z,14.50
2022-11-19T22:16:44.414Z,14.07
2022-11-19T22:26:47.934Z,14.68
2022-11-19T22:36:52.392Z,16.85
2022-11-19T22:46:58.599Z,17.65
2022-11-19T22:57:03.048Z,16.08
2022-11-19T23:07:06.043Z,16.52
2022-11-19T23:17:10.434Z,15.80
2022-11-19T23:27:16.724Z,15.90
2022-11-19T23:37:25.090Z,17.73
2022-11-19T23:47:30.044Z,18.52
2022-11-19T23:57:34.451Z,17.58
